createdAt,value
2019-01-21T00:00:38.255Z,73.07
2019-01-21T00:05:43.265Z,70.07
2019-01-21T00:10:51.271Z,68.73
2019-01-21T00:15:56.383Z,62.00
2019-01-21T00:21:03.521Z,65.23
2019-01-21T00:26:07.891Z,64.00
2019-01-21T00:31:15.269Z,61.18
2019-01-21T00:36:20.057Z,62.23
2019-01-21T00:41:27.304Z,58.13
2019-01-21T00:46:31.817Z,51.87
2019-01-21T00:51:37.535Z,59.67
2019-01-21T00:56:42.330Z,58.02
2019-01-21T01:01:46.709Z,62.57
2019-01-21T01:06:52.622Z,61.90
2019-01-21T01:11:57.306Z,63.60
2019-01-21T01:17:03.290Z,64.35
2019-01-21T01:22:08.590Z,63.15
2019-01-21T01:27:16.139Z,58.87
2019-01-21T01:32:22.937Z,50.67
2019-01-21T01:37:29.602Z,60.83
2019-01-21T01:42:34.507Z,55.93
2019-01-21T01:47:44.674Z,55.50
2019-01-21T01:52:45.753Z,57.80
2019-01-21T01:57:55.408Z,68.40
2019-01-21T02:03:00.012Z,66.87
2019-01-21T02:08:07.174Z,60.50
2019-01-21T02:13:12.522Z,52.40
2019-01-21T02:18:17.435Z,62.43
2019-01-21T02:23:26.629Z,62.40
2019-01-21T02:29:06.791Z,56.67
2019-01-21T02:34:42.867Z,60.80
2019-01-21T02:40:19.200Z,60.17
2019-01-21T02:45:54.889Z,65.57
2019-01-21T02:51:44.611Z,64.20
2019-01-21T02:57:32.530Z,58.43
2019-01-21T03:03:31.507Z,72.47
2019-01-21T03:09:40.303Z,63.27
2019-01-21T03:15:19.146Z,70.00
2019-01-21T03:20:50.635Z,65.57
2019-01-21T03:26:14.729Z,62.23
2019-01-21T03:32:12.353Z,60.17
2019-01-21T03:37:58.517Z,56.50
2019-01-21T03:43:29.119Z,59.23
2019-01-21T03:48:44.440Z,54.47
2019-01-21T03:54:22.197Z,56.80
2019-01-21T04:00:06.836Z,70.70
2019-01-21T04:05:35.705Z,60.53
2019-01-21T04:11:12.880Z,55.03
2019-01-21T04:17:01.562Z,56.23
2019-01-21T04:22:37.559Z,58.27
2019-01-21T04:28:20.028Z,55.33
2019-01-21T04:34:10.927Z,55.60
2019-01-21T04:39:39.505Z,60.12
2019-01-21T04:45:22.174Z,59.20
2019-01-21T04:50:56.166Z,56.93
2019-01-21T04:56:45.630Z,55.70
2019-01-21T05:02:20.619Z,55.13
2019-01-21T05:08:01.985Z,54.03
2019-01-21T05:13:58.695Z,55.43
2019-01-21T05:19:18.651Z,54.27
2019-01-21T05:24:55.032Z,56.60
2019-01-21T05:30:39.214Z,56.00
2019-01-21T05:36:17.213Z,52.98
2019-01-21T05:41:53.843Z,85.60
2019-01-21T05:47:32.441Z,80.03
2019-01-21T05:52:49.206Z,73.87
2019-01-21T05:58:38.720Z,56.20
2019-01-21T06:04:14.992Z,60.60
2019-01-21T06:09:50.610Z,54.33
2019-01-21T06:15:35.325Z,53.10
2019-01-21T06:21:13.610Z,45.00
2019-01-21T06:26:49.120Z,46.93
2019-01-21T06:32:21.811Z,54.23
2019-01-21T06:38:10.523Z,45.10
2019-01-21T06:44:06.662Z,54.03
2019-01-21T06:49:34.596Z,49.13
2019-01-21T06:55:33.909Z,59.60
2019-01-21T07:01:16.427Z,47.93
2019-01-21T07:07:10.160Z,48.20
2019-01-21T07:13:02.289Z,64.17
2019-01-21T07:18:56.751Z,56.13
2019-01-21T07:24:33.061Z,60.80
2019-01-21T07:30:04.311Z,61.97
2019-01-21T07:35:30.404Z,81.50
2019-01-21T07:41:23.403Z,75.50
2019-01-21T07:47:05.247Z,103.37
2019-01-21T07:52:50.134Z,84.37
2019-01-21T07:59:00.610Z,87.63
2019-01-21T08:05:07.596Z,73.50
2019-01-21T08:11:01.204Z,61.33
2019-01-21T08:16:49.482Z,58.27
2019-01-21T08:22:35.131Z,60.73
2019-01-21T08:27:56.524Z,56.33
2019-01-21T08:33:43.626Z,55.23
2019-01-21T08:39:35.180Z,57.05
2019-01-21T08:45:29.058Z,49.07
2019-01-21T08:51:18.290Z,63.80
2019-01-21T08:57:04.586Z,59.40
2019-01-21T09:02:51.904Z,52.30
2019-01-21T09:08:40.688Z,47.53
2019-01-21T09:14:38.699Z,54.13
2019-01-21T09:20:03.686Z,60.87
2019-01-21T09:25:42.933Z,49.77
2019-01-21T09:31:03.012Z,55.23
2019-01-21T09:36:39.864Z,54.07
2019-01-21T09:42:06.182Z,48.58
2019-01-21T09:47:09.098Z,55.10
2019-01-21T09:52:18.429Z,54.43
2019-01-21T09:57:27.956Z,46.00
2019-01-21T10:02:42.778Z,56.10
2019-01-21T10:08:15.649Z,51.90
2019-01-21T10:13:58.198Z,49.40
2019-01-21T10:19:43.695Z,47.53
2019-01-21T10:25:02.077Z,54.33
2019-01-21T10:30:47.952Z,47.62
2019-01-21T10:36:46.262Z,51.27
2019-01-21T10:42:19.951Z,53.17
2019-01-21T10:47:42.352Z,57.47
2019-01-21T10:53:40.160Z,53.00
2019-01-21T10:59:16.589Z,50.43
2019-01-21T11:05:14.614Z,56.15
2019-01-21T11:10:46.467Z,55.37
2019-01-21T11:16:14.372Z,57.90
2019-01-21T11:21:44.419Z,50.67
2019-01-21T11:27:26.716Z,52.27
2019-01-21T11:33:23.911Z,48.60
2019-01-21T11:39:03.902Z,48.57
2019-01-21T11:44:41.246Z,50.63
2019-01-21T11:50:17.550Z,48.63
2019-01-21T11:56:05.361Z,49.77
2019-01-21T12:01:57.975Z,51.33
2019-01-21T12:07:26.174Z,54.23
2019-01-21T12:12:44.818Z,50.30
2019-01-21T12:18:34.993Z,46.80
2019-01-21T12:24:04.721Z,51.97
2019-01-21T12:29:56.572Z,53.57
2019-01-21T12:35:41.144Z,52.87
2019-01-21T12:41:12.728Z,48.23
2019-01-21T12:46:48.660Z,50.40
2019-01-21T12:52:04.529Z,55.73
2019-01-21T12:57:46.647Z,54.50
2019-01-21T13:03:10.723Z,59.90
2019-01-21T13:08:44.519Z,60.47
2019-01-21T13:14:33.864Z,49.60
2019-01-21T13:20:11.881Z,48.60
2019-01-21T13:26:05.157Z,53.43
2019-01-21T13:31:56.906Z,57.57
2019-01-21T13:37:47.630Z,58.27
2019-01-21T13:43:16.341Z,50.73
2019-01-21T13:49:05.641Z,54.53
2019-01-21T13:54:54.533Z,57.43
2019-01-21T14:00:35.988Z,53.75
2019-01-21T14:06:50.325Z,54.67
2019-01-21T14:12:44.419Z,57.10
2019-01-21T14:18:16.640Z,58.77
2019-01-21T14:24:02.076Z,53.97
2019-01-21T14:29:53.962Z,53.07
2019-01-21T14:35:53.725Z,60.93
2019-01-21T14:41:45.468Z,58.43
2019-01-21T14:47:18.961Z,59.48
2019-01-21T14:53:12.334Z,59.05
2019-01-21T14:59:00.489Z,59.23
2019-01-21T15:04:48.864Z,58.07
2019-01-21T15:10:40.409Z,63.30
2019-01-21T15:15:57.276Z,58.57
2019-01-21T15:21:08.372Z,71.10
2019-01-21T15:26:55.204Z,66.13
2019-01-21T15:32:56.287Z,55.93
2019-01-21T15:38:45.285Z,63.27
2019-01-21T15:44:29.774Z,55.08
2019-01-21T15:49:44.013Z,61.53
2019-01-21T15:55:24.355Z,69.07
2019-01-21T16:01:15.140Z,62.23
2019-01-21T16:06:56.724Z,59.13
2019-01-21T16:12:21.156Z,59.00
2019-01-21T16:17:47.121Z,59.17
2019-01-21T16:23:37.664Z,52.93
2019-01-21T16:29:15.800Z,57.90
2019-01-21T16:35:00.278Z,67.13
2019-01-21T16:40:36.470Z,63.50
2019-01-21T16:45:43.304Z,58.27
2019-01-21T16:50:48.539Z,60.80
2019-01-21T16:55:53.890Z,62.80
2019-01-21T17:00:58.802Z,56.67
2019-01-21T17:06:06.901Z,62.90
2019-01-21T17:11:11.666Z,66.80
2019-01-21T17:16:16.539Z,67.97
2019-01-21T17:21:26.923Z,65.87
2019-01-21T17:26:31.128Z,67.90
2019-01-21T17:31:36.342Z,62.33
2019-01-21T17:36:41.067Z,65.53
2019-01-21T17:41:46.275Z,56.30
2019-01-21T17:46:53.392Z,58.30
2019-01-21T17:51:58.662Z,61.03
2019-01-21T17:57:06.831Z,59.67
2019-01-21T18:02:18.400Z,65.97
2019-01-21T18:07:23.950Z,61.60
2019-01-21T18:12:29.347Z,63.73
2019-01-21T18:17:34.693Z,61.87
2019-01-21T18:22:42.220Z,71.30
2019-01-21T18:27:51.284Z,71.33
2019-01-21T18:32:57.393Z,62.13
2019-01-21T18:38:04.218Z,59.60
2019-01-21T18:43:16.552Z,61.37
2019-01-21T18:48:23.037Z,57.03
2019-01-21T18:53:29.591Z,61.47
2019-01-21T18:58:42.165Z,64.73
2019-01-21T19:03:47.672Z,64.57
2019-01-21T19:08:53.852Z,64.80
2019-01-21T19:13:59.404Z,69.50
2019-01-21T19:19:09.418Z,74.13
2019-01-21T19:24:14.618Z,100.40
2019-01-21T19:29:20.134Z,103.40
2019-01-21T19:34:27.346Z,77.40
2019-01-21T19:39:34.755Z,73.43
2019-01-21T19:44:39.911Z,70.00
2019-01-21T19:49:45.367Z,62.73
2019-01-21T19:54:50.409Z,52.00
2019-01-21T19:59:55.585Z,58.80
2019-01-21T20:05:00.767Z,51.15
2019-01-21T20:10:07.595Z,51.65
2019-01-21T20:15:14.867Z,59.77
2019-01-21T20:20:24.540Z,56.93
2019-01-21T20:25:29.023Z,52.30
2019-01-21T20:30:33.965Z,55.37
2019-01-21T20:35:38.648Z,49.37
2019-01-21T20:40:43.448Z,54.60
2019-01-21T20:45:48.503Z,46.50
2019-01-21T20:51:18.872Z,51.97
2019-01-21T20:56:23.691Z,48.50
2019-01-21T21:01:28.863Z,50.77
2019-01-21T21:06:36.364Z,47.00
2019-01-21T21:11:50.085Z,51.73
2019-01-21T21:16:55.545Z,54.13
2019-01-21T21:22:00.274Z,51.70
2019-01-21T21:27:04.714Z,57.43
2019-01-21T21:32:13.232Z,57.50
2019-01-21T21:37:20.733Z,51.33
2019-01-21T21:42:25.317Z,54.00
2019-01-21T21:47:30.218Z,56.55
2019-01-21T21:52:35.965Z,57.17
2019-01-21T21:57:43.811Z,50.13
2019-01-21T22:02:48.600Z,48.03
2019-01-21T22:07:53.525Z,53.80
2019-01-21T22:12:59.017Z,53.57
2019-01-21T22:18:03.782Z,46.00
2019-01-21T22:23:08.560Z,49.97
2019-01-21T22:28:12.916Z,45.37
2019-01-21T22:33:19.217Z,51.67
2019-01-21T22:38:23.568Z,54.70
2019-01-21T22:43:28.019Z,47.77
2019-01-21T22:48:33.422Z,44.93
2019-01-21T22:53:39.107Z,48.83
2019-01-21T22:58:43.790Z,46.47
2019-01-21T23:03:50.357Z,42.03
2019-01-21T23:08:55.325Z,49.10
2019-01-21T23:13:59.819Z,50.63
2019-01-21T23:19:04.991Z,44.40
2019-01-21T23:24:09.373Z,43.20
2019-01-21T23:29:14.072Z,43.37
2019-01-21T23:34:18.698Z,46.73
2019-01-21T23:39:23.777Z,50.43
2019-01-21T23:44:28.598Z,44.27
2019-01-21T23:49:33.433Z,46.10
2019-01-21T23:54:38.019Z,41.20
2019-01-21T23:59:42.529Z,39.60
